createdAt,value
2017-12-28T00:00:20.167Z,17.93
2017-12-28T00:02:47.622Z,17.92
2017-12-28T00:05:15.479Z,17.88
2017-12-28T00:07:42.918Z,17.88
2017-12-28T00:10:10.371Z,17.87
2017-12-28T00:12:37.841Z,17.87
2017-12-28T00:15:05.293Z,17.85
2017-12-28T00:17:32.776Z,17.84
2017-12-28T00:20:00.227Z,17.84
2017-12-28T00:22:28.019Z,17.83
2017-12-28T00:24:55.462Z,17.82
2017-12-28T00:27:22.910Z,17.82
2017-12-28T00:29:50.374Z,17.81
2017-12-28T00:32:17.818Z,17.80
2017-12-28T00:34:45.287Z,17.79
2017-12-28T00:37:12.911Z,17.77
2017-12-28T00:39:40.741Z,17.77
2017-12-28T00:42:08.204Z,17.76
2017-12-28T00:44:35.660Z,17.75
2017-12-28T00:47:02.958Z,17.74
2017-12-28T00:49:30.223Z,17.74
2017-12-28T00:51:57.702Z,17.73
2017-12-28T00:54:25.171Z,17.71
2017-12-28T00:56:52.652Z,17.71
2017-12-28T00:59:20.095Z,17.71
2017-12-28T01:01:47.571Z,17.69
2017-12-28T01:04:15.037Z,17.69
2017-12-28T01:06:42.516Z,17.68
2017-12-28T01:09:09.959Z,17.67
2017-12-28T01:11:37.419Z,17.67
2017-12-28T01:14:04.890Z,17.65
2017-12-28T01:16:32.339Z,17.65
2017-12-28T01:18:59.904Z,17.65
2017-12-28T01:21:27.358Z,17.63
2017-12-28T01:23:54.807Z,17.62
2017-12-28T01:26:22.281Z,17.62
2017-12-28T01:28:49.854Z,17.62
2017-12-28T01:31:17.672Z,17.61
2017-12-28T01:33:45.152Z,17.60
2017-12-28T01:36:12.590Z,17.58
2017-12-28T01:38:40.070Z,17.58
2017-12-28T01:41:07.527Z,17.57
2017-12-28T01:43:35.262Z,17.57
2017-12-28T01:46:02.723Z,17.54
2017-12-28T01:48:30.166Z,17.55
2017-12-28T01:50:57.647Z,17.55
2017-12-28T01:53:25.091Z,17.53
2017-12-28T01:55:52.773Z,17.53
2017-12-28T01:58:20.325Z,17.52
2017-12-28T02:00:47.732Z,17.50
2017-12-28T02:03:15.206Z,17.50
2017-12-28T02:05:42.763Z,17.50
2017-12-28T02:08:10.246Z,17.49
2017-12-28T02:10:37.695Z,17.48
2017-12-28T02:13:05.198Z,17.48
2017-12-28T02:15:32.845Z,17.48
2017-12-28T02:18:00.342Z,17.46
2017-12-28T02:20:27.795Z,17.46
2017-12-28T02:22:55.244Z,17.43
2017-12-28T02:25:22.707Z,17.44
2017-12-28T02:27:50.162Z,17.44
2017-12-28T02:30:17.631Z,17.44
2017-12-28T02:32:45.279Z,17.43
2017-12-28T02:35:12.862Z,17.41
2017-12-28T02:37:40.319Z,17.42
2017-12-28T02:40:07.766Z,17.41
2017-12-28T02:42:35.252Z,17.40
2017-12-28T02:45:02.709Z,17.41
2017-12-28T02:47:30.178Z,17.41
2017-12-28T02:49:57.627Z,17.40
2017-12-28T02:52:25.106Z,17.39
2017-12-28T02:54:52.554Z,17.37
2017-12-28T02:57:20.030Z,17.36
2017-12-28T02:59:47.474Z,17.36
2017-12-28T03:02:14.963Z,17.35
2017-12-28T03:04:42.434Z,17.35
2017-12-28T03:07:09.891Z,17.34
2017-12-28T03:09:37.378Z,17.33
2017-12-28T03:12:05.198Z,17.35
2017-12-28T03:14:32.648Z,17.32
2017-12-28T03:17:00.095Z,17.32
2017-12-28T03:19:27.567Z,17.32
2017-12-28T03:21:55.017Z,17.30
2017-12-28T03:24:22.490Z,17.31
2017-12-28T03:26:49.939Z,17.29
2017-12-28T03:29:17.408Z,17.28
2017-12-28T03:31:44.846Z,17.28
2017-12-28T03:34:12.316Z,17.28
2017-12-28T03:36:39.586Z,17.26
2017-12-28T03:39:07.732Z,17.27
2017-12-28T03:41:35.194Z,17.26
2017-12-28T03:44:02.658Z,17.24
2017-12-28T03:46:30.111Z,17.24
2017-12-28T03:48:57.573Z,17.23
2017-12-28T03:51:25.028Z,17.22
2017-12-28T03:56:37.063Z,17.23
2017-12-28T03:59:04.510Z,17.22
2017-12-28T04:01:31.998Z,17.22
2017-12-28T04:03:59.639Z,17.22
2017-12-28T04:06:27.238Z,17.20
2017-12-28T04:08:54.682Z,17.19
2017-12-28T04:11:22.128Z,17.19
2017-12-28T04:13:49.610Z,17.18
2017-12-28T04:16:17.067Z,17.16
2017-12-28T04:18:44.543Z,17.17
2017-12-28T04:21:12.201Z,17.17
2017-12-28T04:23:39.855Z,17.16
2017-12-28T04:26:07.311Z,17.15
2017-12-28T04:28:34.746Z,17.14
2017-12-28T04:31:02.224Z,17.14
2017-12-28T04:33:29.678Z,17.14
2017-12-28T04:35:57.326Z,17.13
2017-12-28T04:38:24.779Z,17.13
2017-12-28T04:40:52.254Z,17.14
2017-12-28T04:43:19.743Z,17.13
2017-12-28T04:45:47.229Z,17.12
2017-12-28T04:48:14.869Z,17.11
2017-12-28T04:50:42.497Z,17.10
2017-12-28T04:53:09.782Z,17.10
2017-12-28T04:55:37.262Z,17.09
2017-12-28T04:58:04.727Z,17.09
2017-12-28T05:00:32.374Z,17.10
2017-12-28T05:03:00.035Z,17.10
2017-12-28T05:05:27.481Z,17.10
2017-12-28T05:07:54.931Z,17.13
2017-12-28T05:10:22.404Z,17.13
2017-12-28T05:12:49.870Z,17.14
2017-12-28T05:15:17.343Z,17.18
2017-12-28T05:17:44.824Z,17.20
2017-12-28T05:20:12.271Z,17.23
2017-12-28T05:22:39.720Z,17.27
2017-12-28T05:25:07.186Z,17.30
2017-12-28T05:27:34.667Z,17.35
2017-12-28T05:30:02.110Z,17.38
2017-12-28T05:32:29.754Z,17.41
2017-12-28T05:34:57.233Z,17.45
2017-12-28T05:37:24.675Z,17.49
2017-12-28T05:39:52.150Z,17.53
2017-12-28T05:42:19.605Z,17.56
2017-12-28T05:44:47.063Z,17.60
2017-12-28T05:47:14.539Z,17.63
2017-12-28T05:49:41.986Z,17.66
2017-12-28T05:52:09.442Z,17.69
2017-12-28T05:54:36.923Z,17.73
2017-12-28T05:57:04.370Z,17.76
2017-12-28T05:59:31.846Z,17.78
2017-12-28T06:01:59.296Z,17.80
2017-12-28T06:04:26.770Z,17.83
2017-12-28T06:06:54.246Z,17.85
2017-12-28T06:09:21.711Z,17.88
2017-12-28T06:11:49.159Z,17.90
2017-12-28T06:14:16.635Z,17.91
2017-12-28T06:16:44.119Z,17.92
2017-12-28T06:19:11.567Z,17.94
2017-12-28T06:21:38.855Z,17.96
2017-12-28T06:24:06.127Z,17.99
2017-12-28T06:26:33.414Z,17.99
2017-12-28T06:29:01.063Z,18.01
2017-12-28T06:31:28.535Z,18.01
2017-12-28T06:33:55.974Z,18.03
2017-12-28T06:36:23.426Z,18.03
2017-12-28T06:38:50.903Z,18.05
2017-12-28T06:41:18.343Z,18.06
2017-12-28T06:43:45.823Z,18.08
2017-12-28T06:46:13.274Z,18.09
2017-12-28T06:48:40.743Z,18.11
2017-12-28T06:51:08.227Z,18.12
2017-12-28T06:53:35.667Z,18.14
2017-12-28T06:56:03.598Z,18.14
2017-12-28T06:58:31.248Z,18.15
2017-12-28T07:00:58.694Z,18.16
2017-12-28T07:03:26.164Z,18.17
2017-12-28T07:05:53.810Z,18.17
2017-12-28T07:08:21.506Z,18.17
2017-12-28T07:10:48.950Z,18.19
2017-12-28T07:13:16.400Z,18.19
2017-12-28T07:15:43.868Z,18.21
2017-12-28T07:18:11.315Z,18.23
2017-12-28T07:20:38.789Z,18.24
2017-12-28T07:23:06.243Z,18.26
2017-12-28T07:25:33.734Z,18.27
2017-12-28T07:28:01.359Z,18.29
2017-12-28T07:30:28.658Z,18.31
2017-12-28T07:32:56.115Z,18.32
2017-12-28T07:35:23.551Z,18.33
2017-12-28T07:37:51.174Z,18.34
2017-12-28T07:40:18.618Z,18.34
2017-12-28T07:42:46.070Z,18.35
2017-12-28T07:45:13.564Z,18.36
2017-12-28T07:47:41.016Z,18.38
2017-12-28T07:50:08.495Z,18.37
2017-12-28T07:52:35.918Z,18.38
2017-12-28T07:55:03.379Z,18.40
2017-12-28T07:57:30.855Z,18.40
2017-12-28T07:59:58.101Z,18.40
2017-12-28T08:02:25.575Z,18.40
2017-12-28T08:04:53.031Z,18.40
2017-12-28T08:07:20.506Z,18.40
2017-12-28T08:09:47.987Z,18.41
2017-12-28T08:12:15.472Z,18.40
2017-12-28T08:14:42.931Z,18.39
2017-12-28T08:17:10.378Z,18.41
2017-12-28T08:19:38.142Z,18.40
2017-12-28T08:22:05.602Z,18.41
2017-12-28T08:24:33.058Z,18.41
2017-12-28T08:27:00.544Z,18.41
2017-12-28T08:29:27.799Z,18.41
2017-12-28T08:31:55.255Z,18.42
2017-12-28T08:34:22.895Z,18.42
2017-12-28T08:36:50.407Z,18.41
2017-12-28T08:39:17.869Z,18.42
2017-12-28T08:41:45.547Z,18.42
2017-12-28T08:44:13.039Z,18.43
2017-12-28T08:46:40.525Z,18.43
2017-12-28T08:49:08.447Z,18.44
2017-12-28T08:51:36.181Z,18.45
2017-12-28T08:54:03.628Z,18.46
2017-12-28T08:56:31.082Z,18.47
2017-12-28T08:58:58.561Z,18.47
2017-12-28T09:01:26.207Z,18.48
2017-12-28T09:03:53.682Z,18.50
2017-12-28T09:06:21.141Z,18.48
2017-12-28T09:08:48.622Z,18.51
2017-12-28T09:11:16.077Z,18.51
2017-12-28T09:13:43.567Z,18.52
2017-12-28T09:16:11.015Z,18.53
2017-12-28T09:18:38.467Z,18.54
2017-12-28T09:21:05.955Z,18.56
2017-12-28T09:23:33.578Z,18.57
2017-12-28T09:26:01.028Z,18.59
2017-12-28T09:28:28.491Z,18.61
2017-12-28T09:30:55.967Z,18.62
2017-12-28T09:33:23.422Z,18.62
2017-12-28T09:35:50.714Z,18.65
2017-12-28T09:38:18.166Z,18.53
2017-12-28T09:40:45.611Z,18.11
2017-12-28T09:43:13.095Z,17.88
2017-12-28T09:45:40.546Z,17.72
2017-12-28T09:48:07.991Z,17.59
2017-12-28T09:50:35.466Z,17.49
2017-12-28T09:53:02.960Z,17.47
2017-12-28T09:55:30.423Z,17.35
2017-12-28T09:57:57.918Z,17.30
2017-12-28T10:00:25.367Z,17.34
2017-12-28T10:02:52.863Z,17.33
2017-12-28T10:05:20.465Z,17.47
2017-12-28T10:07:48.122Z,17.80
2017-12-28T10:10:15.649Z,17.97
2017-12-28T10:12:43.078Z,18.08
2017-12-28T10:15:10.602Z,18.17
2017-12-28T10:17:38.149Z,18.24
2017-12-28T10:20:05.588Z,18.27
2017-12-28T10:22:33.031Z,18.35
2017-12-28T10:25:00.711Z,18.41
2017-12-28T10:27:28.163Z,18.46
2017-12-28T10:29:55.644Z,18.51
2017-12-28T10:32:23.099Z,18.54
2017-12-28T10:34:50.568Z,18.57
2017-12-28T10:37:18.238Z,18.60
2017-12-28T10:39:45.719Z,18.62
2017-12-28T10:42:13.185Z,18.65
2017-12-28T10:44:40.639Z,18.65
2017-12-28T10:47:08.119Z,18.66
2017-12-28T10:49:35.576Z,18.70
2017-12-28T10:52:03.060Z,18.72
2017-12-28T10:54:30.531Z,18.75
2017-12-28T10:56:58.178Z,18.75
2017-12-28T10:59:25.642Z,18.76
2017-12-28T11:01:53.106Z,18.77
2017-12-28T11:04:20.563Z,18.79
2017-12-28T11:06:48.037Z,18.81
2017-12-28T11:09:15.491Z,18.81
2017-12-28T11:11:43.010Z,18.84
2017-12-28T11:14:10.288Z,18.85
2017-12-28T11:16:37.738Z,18.87
2017-12-28T11:19:05.392Z,18.89
2017-12-28T11:21:32.849Z,18.91
2017-12-28T11:24:00.293Z,18.92
2017-12-28T11:26:27.771Z,18.95
2017-12-28T11:28:55.250Z,18.95
2017-12-28T11:31:22.743Z,18.97
2017-12-28T11:33:50.201Z,18.98
2017-12-28T11:36:17.681Z,18.99
2017-12-28T11:38:45.346Z,19.00
2017-12-28T11:41:12.829Z,19.02
2017-12-28T11:43:40.313Z,19.03
2017-12-28T11:46:07.767Z,19.03
2017-12-28T11:48:35.051Z,19.04
2017-12-28T11:51:02.344Z,19.02
2017-12-28T11:53:29.602Z,19.03
2017-12-28T11:56:02.446Z,19.02
2017-12-28T11:58:30.538Z,19.02
2017-12-28T12:00:57.863Z,19.01
2017-12-28T12:03:30.626Z,19.03
2017-12-28T12:05:58.541Z,19.02
2017-12-28T12:08:35.731Z,19.02
2017-12-28T12:11:03.184Z,19.02
2017-12-28T12:13:30.668Z,19.04
2017-12-28T12:15:58.123Z,19.03
2017-12-28T12:18:25.759Z,19.03
2017-12-28T12:20:53.503Z,19.03
2017-12-28T12:23:20.963Z,19.04
2017-12-28T12:25:48.420Z,19.03
2017-12-28T12:28:15.894Z,19.02
2017-12-28T12:30:43.746Z,19.02
2017-12-28T12:33:11.215Z,19.02
2017-12-28T12:35:38.646Z,19.04
2017-12-28T12:38:06.118Z,19.04
2017-12-28T12:40:33.587Z,19.04
2017-12-28T12:43:01.071Z,19.05
2017-12-28T12:45:28.548Z,19.06
2017-12-28T12:47:56.005Z,19.07
2017-12-28T12:50:23.489Z,19.07
2017-12-28T12:52:50.943Z,19.08
2017-12-28T12:55:18.398Z,19.08
2017-12-28T12:57:45.887Z,19.08
2017-12-28T13:00:14.491Z,19.13
2017-12-28T13:02:42.183Z,19.16
2017-12-28T13:05:09.662Z,19.18
2017-12-28T13:07:37.143Z,19.20
2017-12-28T13:10:04.598Z,19.21
2017-12-28T13:12:32.047Z,19.20
2017-12-28T13:15:00.548Z,19.23
2017-12-28T13:17:28.003Z,19.23
2017-12-28T13:19:55.470Z,19.23
2017-12-28T13:22:22.944Z,19.24
2017-12-28T13:24:50.595Z,19.24
2017-12-28T13:27:18.076Z,19.24
2017-12-28T13:29:45.543Z,19.22
2017-12-28T13:32:12.999Z,19.23
2017-12-28T13:34:40.738Z,19.23
2017-12-28T13:37:08.187Z,19.23
2017-12-28T13:39:35.882Z,19.21
2017-12-28T13:42:03.367Z,19.19
2017-12-28T13:44:30.815Z,19.17
2017-12-28T13:46:58.288Z,19.16
2017-12-28T13:49:25.756Z,19.17
2017-12-28T14:05:03.743Z,20.02
2017-12-28T14:07:30.517Z,20.14
2017-12-28T14:30:34.162Z,20.40
2017-12-28T14:35:29.227Z,20.44
2017-12-28T14:40:48.112Z,20.63
2017-12-28T14:43:15.100Z,20.70
2017-12-28T14:46:10.755Z,20.32
2017-12-28T14:48:37.907Z,20.05
2017-12-28T14:51:05.152Z,19.94
2017-12-28T14:53:32.103Z,19.89
2017-12-28T14:55:59.044Z,19.88
2017-12-28T14:58:26.423Z,19.87
2017-12-28T15:00:53.455Z,19.89
2017-12-28T15:03:20.482Z,19.89
2017-12-28T15:05:47.584Z,19.91
2017-12-28T15:08:14.520Z,19.91
2017-12-28T15:10:41.671Z,19.89
2017-12-28T15:13:08.636Z,19.83
2017-12-28T15:15:35.582Z,19.81
2017-12-28T15:18:02.766Z,19.82
2017-12-28T15:20:29.724Z,19.82
2017-12-28T15:22:56.696Z,19.82
2017-12-28T15:25:23.944Z,19.82
2017-12-28T15:27:50.928Z,19.81
2017-12-28T15:30:17.876Z,19.81
2017-12-28T15:32:44.826Z,19.82
2017-12-28T15:35:11.987Z,19.82
2017-12-28T15:37:38.931Z,19.82
2017-12-28T15:40:05.895Z,19.81
2017-12-28T15:42:32.861Z,19.77
2017-12-28T15:44:59.932Z,19.78
2017-12-28T15:47:26.927Z,19.78
2017-12-28T15:49:53.853Z,19.78
2017-12-28T15:52:20.832Z,19.79
2017-12-28T15:54:47.863Z,19.78
2017-12-28T15:57:14.840Z,19.79
2017-12-28T15:59:41.829Z,19.79
2017-12-28T16:02:08.832Z,19.80
2017-12-28T16:04:36.423Z,19.80
2017-12-28T16:07:03.367Z,19.80
2017-12-28T16:09:30.334Z,19.80
2017-12-28T16:11:57.096Z,19.80
2017-12-28T16:14:24.068Z,19.81
2017-12-28T16:16:51.010Z,19.81
2017-12-28T16:19:18.166Z,19.81
2017-12-28T16:21:45.145Z,19.82
2017-12-28T16:24:12.292Z,19.83
2017-12-28T16:26:39.269Z,19.82
2017-12-28T16:29:06.220Z,19.85
2017-12-28T16:31:33.173Z,19.85
2017-12-28T16:34:00.348Z,19.86
2017-12-28T16:36:27.291Z,19.87
2017-12-28T16:38:54.476Z,19.87
2017-12-28T16:41:21.423Z,19.88
2017-12-28T16:43:48.368Z,19.94
2017-12-28T16:46:15.341Z,19.96
2017-12-28T16:48:42.307Z,19.99
2017-12-28T16:51:10.488Z,20.01
2017-12-28T16:53:37.465Z,20.03
2017-12-28T16:56:04.429Z,20.05
2017-12-28T16:58:31.387Z,20.05
2017-12-28T17:00:58.338Z,20.07
2017-12-28T17:05:10.867Z,20.42
2017-12-28T17:07:37.839Z,20.43
2017-12-28T17:10:05.102Z,20.47
2017-12-28T17:12:32.347Z,20.47
2017-12-28T17:14:59.365Z,20.41
2017-12-28T17:17:26.550Z,20.40
2017-12-28T17:19:53.846Z,20.41
2017-12-28T17:22:21.012Z,20.46
2017-12-28T17:24:48.366Z,20.42
2017-12-28T17:53:38.535Z,20.31
2017-12-28T18:17:07.443Z,20.26
2017-12-28T18:21:28.772Z,20.27
2017-12-28T18:23:55.808Z,20.28
2017-12-28T18:26:22.795Z,20.20
2017-12-28T18:28:50.095Z,20.03
2017-12-28T18:31:17.086Z,19.99
2017-12-28T18:33:44.073Z,19.96
2017-12-28T18:36:11.163Z,19.92
2017-12-28T18:38:38.420Z,19.90
2017-12-28T18:41:05.441Z,20.06
2017-12-28T18:43:33.119Z,20.04
2017-12-28T18:45:59.986Z,20.08
2017-12-28T18:48:26.910Z,20.10
2017-12-28T18:50:55.056Z,19.96
2017-12-28T18:53:21.935Z,19.93
2017-12-28T18:55:48.832Z,19.90
2017-12-28T18:58:16.055Z,19.89
2017-12-28T19:00:43.018Z,19.88
2017-12-28T19:03:10.364Z,19.85
2017-12-28T19:05:37.383Z,19.86
2017-12-28T19:08:04.303Z,19.86
2017-12-28T19:10:31.270Z,19.85
2017-12-28T19:12:58.174Z,19.84
2017-12-28T19:15:25.079Z,19.84
2017-12-28T19:17:51.978Z,19.81
2017-12-28T19:20:18.852Z,19.78
2017-12-28T19:22:45.743Z,19.73
2017-12-28T19:25:12.627Z,19.70
2017-12-28T19:27:39.554Z,19.65
2017-12-28T19:30:06.428Z,19.64
2017-12-28T19:32:33.294Z,19.59
2017-12-28T19:35:00.226Z,19.56
2017-12-28T19:37:27.176Z,19.53
2017-12-28T19:39:54.070Z,19.50
2017-12-28T19:42:20.954Z,19.50
2017-12-28T19:44:48.158Z,19.45
2017-12-28T19:48:36.099Z,19.69
2017-12-28T19:51:03.098Z,19.72
2017-12-28T19:55:04.279Z,19.73
2017-12-28T20:00:27.795Z,19.46
2017-12-28T20:02:53.791Z,19.25
2017-12-28T20:05:19.772Z,19.18
2017-12-28T20:07:45.740Z,19.17
2017-12-28T20:10:11.646Z,19.11
2017-12-28T20:12:37.570Z,19.13
2017-12-28T20:15:03.596Z,19.10
2017-12-28T20:17:29.514Z,19.09
2017-12-28T20:19:55.461Z,19.07
2017-12-28T20:22:21.480Z,19.20
2017-12-28T20:24:47.615Z,19.84
2017-12-28T20:27:13.536Z,19.75
2017-12-28T20:29:39.460Z,19.55
2017-12-28T20:32:05.454Z,19.35
2017-12-28T20:34:31.388Z,19.29
2017-12-28T20:39:28.112Z,19.28
2017-12-28T20:41:54.031Z,19.25
2017-12-28T20:44:20.011Z,19.26
2017-12-28T20:57:11.996Z,19.83
2017-12-28T20:59:37.950Z,19.67
2017-12-28T21:02:03.877Z,19.59
2017-12-28T21:11:22.153Z,19.65
2017-12-28T21:13:47.715Z,19.63
2017-12-28T21:16:13.246Z,19.63
2017-12-28T21:18:38.816Z,19.60
2017-12-28T21:21:04.344Z,19.57
2017-12-28T21:23:29.865Z,19.58
2017-12-28T21:28:34.790Z,19.26
2017-12-28T21:31:01.626Z,19.21
2017-12-28T21:33:28.481Z,19.19
2017-12-28T21:35:55.363Z,19.20
2017-12-28T21:39:36.454Z,19.12
2017-12-28T21:42:02.344Z,18.98
2017-12-28T21:44:28.312Z,18.92
2017-12-28T21:46:54.427Z,18.88
2017-12-28T21:49:20.411Z,18.81
2017-12-28T21:51:46.745Z,18.77
2017-12-28T21:54:12.772Z,18.73
2017-12-28T21:56:38.809Z,18.70
2017-12-28T21:59:04.823Z,18.13
2017-12-28T22:01:30.768Z,18.66
2017-12-28T22:03:56.755Z,18.61
2017-12-28T22:06:22.651Z,18.61
2017-12-28T22:08:48.567Z,18.57
2017-12-28T22:11:14.478Z,18.55
2017-12-28T22:13:40.555Z,18.53
2017-12-28T22:16:06.479Z,18.50
2017-12-28T22:18:32.384Z,18.47
2017-12-28T22:20:58.283Z,18.46
2017-12-28T22:23:24.194Z,18.44
2017-12-28T22:25:50.090Z,18.44
2017-12-28T22:28:16.083Z,18.40
2017-12-28T22:30:41.977Z,18.37
2017-12-28T22:33:07.909Z,18.37
2017-12-28T22:35:33.815Z,18.36
2017-12-28T22:37:59.699Z,18.33
2017-12-28T22:40:25.627Z,18.33
2017-12-28T22:42:51.546Z,18.30
2017-12-28T22:45:17.422Z,18.29
2017-12-28T22:47:43.329Z,18.28
2017-12-28T22:50:09.259Z,18.25
2017-12-28T22:52:35.143Z,18.25
2017-12-28T22:55:01.071Z,18.22
2017-12-28T22:57:26.971Z,18.21
2017-12-28T22:59:52.858Z,18.19
2017-12-28T23:02:19.331Z,18.17
2017-12-28T23:04:45.247Z,18.15
2017-12-28T23:07:11.163Z,18.15
2017-12-28T23:09:37.059Z,18.13
2017-12-28T23:12:03.010Z,18.12
2017-12-28T23:14:28.903Z,18.11
2017-12-28T23:16:54.816Z,18.09
2017-12-28T23:19:20.734Z,18.09
2017-12-28T23:21:46.624Z,18.06
2017-12-28T23:24:12.543Z,18.04
2017-12-28T23:26:38.663Z,18.04
2017-12-28T23:29:04.563Z,18.02
2017-12-28T23:31:30.459Z,18.02
2017-12-28T23:33:56.374Z,17.99
2017-12-28T23:36:22.269Z,17.98
2017-12-28T23:38:48.399Z,17.96
2017-12-28T23:41:14.292Z,17.96
2017-12-28T23:43:41.371Z,17.92
2017-12-28T23:46:07.306Z,17.92
2017-12-28T23:48:33.232Z,17.90
2017-12-28T23:50:59.126Z,17.90
2017-12-28T23:53:25.602Z,17.89
2017-12-28T23:55:51.512Z,17.87
2017-12-28T23:58:17.431Z,17.87
